createdAt,value
2023-01-11T00:00:35.198Z,100789.47
2023-01-11T00:04:34.489Z,100789.31
2023-01-11T00:08:33.904Z,100782.56
2023-01-11T00:12:33.158Z,100797.25
2023-01-11T00:16:34.559Z,100803.59
2023-01-11T00:20:33.966Z,100806.28
2023-01-11T00:24:33.411Z,100799.44
2023-01-11T00:28:32.674Z,100795.94
2023-01-11T00:32:33.968Z,100795.69
2023-01-11T00:36:34.467Z,100812.22
2023-01-11T00:40:33.724Z,100823.75
2023-01-11T00:44:49.302Z,100831.91
2023-01-11T00:48:50.689Z,100846.31
2023-01-11T00:52:49.923Z,100846.44
2023-01-11T00:56:49.298Z,100851.34
2023-01-11T01:00:48.732Z,100846.19
2023-01-11T01:04:50.068Z,100850.63
2023-01-11T01:08:49.355Z,100852.72
2023-01-11T01:13:04.897Z,100845.03
2023-01-11T01:17:06.749Z,100846.41
2023-01-11T01:21:08.329Z,100845.03
2023-01-11T01:25:07.975Z,100832.94
2023-01-11T01:29:07.216Z,100839.66
2023-01-11T01:33:07.009Z,100831.00
2023-01-11T01:37:09.261Z,100811.09
2023-01-11T01:41:08.694Z,100822.19
2023-01-11T01:45:09.212Z,100849.34
2023-01-11T01:49:30.358Z,100845.44
2023-01-11T01:53:42.523Z,100843.59
2023-01-11T01:57:43.314Z,100844.22
2023-01-11T02:01:49.449Z,100839.47
2023-01-11T02:05:48.981Z,100850.47
2023-01-11T02:09:52.367Z,100844.50
2023-01-11T02:13:51.606Z,100853.00
2023-01-11T02:17:51.047Z,100840.63
2023-01-11T02:21:58.325Z,100836.44
2023-01-11T02:26:08.891Z,100850.16
2023-01-11T02:30:20.444Z,100857.31
2023-01-11T02:34:28.534Z,100871.09
2023-01-11T02:38:30.575Z,100865.13
2023-01-11T02:42:53.352Z,100846.41
2023-01-11T02:46:56.828Z,100838.00
2023-01-11T02:50:59.214Z,100845.78
2023-01-11T02:55:00.285Z,100855.75
2023-01-11T02:59:00.661Z,100863.81
2023-01-11T03:03:13.202Z,100865.06
2023-01-11T03:07:23.802Z,100859.97
2023-01-11T03:11:42.691Z,100856.09
2023-01-11T03:15:55.297Z,100852.22
2023-01-11T03:20:01.264Z,100854.16
2023-01-11T03:24:03.656Z,100848.22
2023-01-11T03:28:04.608Z,100848.25
2023-01-11T03:32:10.968Z,100857.13
2023-01-11T03:36:16.574Z,100863.13
2023-01-11T03:40:18.286Z,100870.41
2023-01-11T03:44:18.922Z,100890.97
2023-01-11T03:48:20.436Z,100899.13
2023-01-11T03:52:25.305Z,100902.03
2023-01-11T03:56:27.312Z,100913.94
2023-01-11T04:00:29.530Z,100908.97
2023-01-11T04:04:29.184Z,100905.69
2023-01-11T04:08:30.906Z,100913.31
2023-01-11T04:12:30.662Z,100911.59
2023-01-11T04:16:30.912Z,100922.59
2023-01-11T04:20:31.262Z,100916.81
2023-01-11T04:24:33.206Z,100917.13
2023-01-11T04:28:32.672Z,100926.03
2023-01-11T04:32:54.182Z,100931.06
2023-01-11T04:36:53.273Z,100942.31
2023-01-11T04:41:15.835Z,100950.41
2023-01-11T04:45:18.343Z,100956.53
2023-01-11T04:49:17.540Z,100956.66
2023-01-11T04:53:16.937Z,100951.56
2023-01-11T04:57:18.758Z,100947.28
2023-01-11T05:01:20.128Z,100945.22
2023-01-11T05:05:19.872Z,100945.06
2023-01-11T05:09:19.985Z,100964.50
2023-01-11T05:13:20.980Z,100968.06
2023-01-11T05:17:22.211Z,100953.50
2023-01-11T05:21:22.147Z,100955.94
2023-01-11T05:25:21.804Z,100956.75
2023-01-11T05:29:23.501Z,100973.19
2023-01-11T05:33:22.969Z,100979.06
2023-01-11T05:37:22.523Z,100988.59
2023-01-11T05:41:23.356Z,100996.53
2023-01-11T05:45:32.123Z,100982.50
2023-01-11T05:49:36.850Z,100994.78
2023-01-11T05:53:36.806Z,101001.09
2023-01-11T05:57:36.388Z,101014.63
2023-01-11T06:01:38.079Z,101020.19
2023-01-11T06:05:38.366Z,101020.66
2023-01-11T06:09:37.874Z,101042.13
2023-01-11T06:13:37.756Z,101028.78
2023-01-11T06:17:40.850Z,101025.56
2023-01-11T06:21:40.367Z,101015.31
2023-01-11T06:25:39.351Z,101024.97
2023-01-11T06:29:38.871Z,101044.59
2023-01-11T06:33:40.805Z,101043.88
2023-01-11T06:37:40.524Z,101042.91
2023-01-11T06:41:40.066Z,101060.75
2023-01-11T06:45:39.208Z,101062.28
2023-01-11T06:49:40.988Z,101066.13
2023-01-11T06:53:40.705Z,101055.91
2023-01-11T06:57:40.758Z,101056.88
2023-01-11T07:01:40.013Z,101071.94
2023-01-11T07:05:43.721Z,101068.16
2023-01-11T07:09:42.821Z,101073.34
2023-01-11T07:13:42.653Z,101093.44
2023-01-11T07:17:42.572Z,101098.81
2023-01-11T07:21:43.863Z,101106.88
2023-01-11T07:25:43.790Z,101104.69
2023-01-11T07:29:43.552Z,101116.84
2023-01-11T07:33:43.121Z,101140.22
2023-01-11T07:37:45.234Z,101140.28
2023-01-11T07:42:00.607Z,101147.13
2023-01-11T07:46:01.408Z,101146.16
2023-01-11T07:50:00.984Z,101150.06
2023-01-11T07:54:03.660Z,101169.66
2023-01-11T07:58:02.843Z,101172.94
2023-01-11T08:02:05.301Z,101172.97
2023-01-11T08:06:07.961Z,101186.25
2023-01-11T08:10:10.225Z,101186.88
2023-01-11T08:14:28.576Z,101182.63
2023-01-11T08:18:27.941Z,101190.00
2023-01-11T08:22:27.410Z,101194.00
2023-01-11T08:26:29.427Z,101198.53
2023-01-11T08:30:28.732Z,101206.56
2023-01-11T08:34:28.947Z,101204.03
2023-01-11T08:38:28.288Z,101216.63
2023-01-11T08:42:30.048Z,101216.19
2023-01-11T08:46:29.457Z,101214.91
2023-01-11T08:50:28.868Z,101225.94
2023-01-11T08:54:27.737Z,101234.88
2023-01-11T08:58:29.287Z,101249.84
2023-01-11T09:02:28.404Z,101252.31
2023-01-11T09:06:27.949Z,101235.03
2023-01-11T09:10:28.088Z,101246.63
2023-01-11T09:14:29.700Z,101236.38
2023-01-11T09:18:29.116Z,101220.91
2023-01-11T09:22:28.895Z,101237.38
2023-01-11T09:26:29.182Z,101254.88
2023-01-11T09:30:31.364Z,101239.72
2023-01-11T09:34:31.064Z,101254.41
2023-01-11T09:38:32.987Z,101256.56
2023-01-11T09:42:36.135Z,101263.69
2023-01-11T09:46:41.868Z,101263.19
2023-01-11T09:50:43.786Z,101271.59
2023-01-11T09:54:47.750Z,101268.72
2023-01-11T09:59:01.681Z,101264.53
2023-01-11T10:03:16.558Z,101275.91
2023-01-11T10:07:25.625Z,101282.56
2023-01-11T10:18:37.596Z,101282.81
2023-01-11T10:20:24.568Z,101283.59
2023-01-11T10:24:29.454Z,101276.84
2023-01-11T10:28:34.827Z,101279.41
2023-01-11T10:33:06.152Z,101281.72
2023-01-11T10:37:23.824Z,101276.53
2023-01-11T10:41:33.799Z,101272.81
2023-01-11T10:45:39.248Z,101280.53
2023-01-11T10:49:46.566Z,101280.16
2023-01-11T10:53:57.503Z,101281.16
2023-01-11T10:58:06.753Z,101284.56
2023-01-11T11:02:12.906Z,101278.50
2023-01-11T11:06:19.319Z,101284.75
2023-01-11T11:10:22.057Z,101286.50
2023-01-11T11:14:27.954Z,101283.06
2023-01-11T11:18:27.499Z,101279.56
2023-01-11T11:22:27.081Z,101282.28
2023-01-11T11:26:29.731Z,101298.66
2023-01-11T11:30:33.702Z,101293.75
2023-01-11T11:34:33.388Z,101289.97
2023-01-11T11:38:34.253Z,101289.28
2023-01-11T11:42:33.742Z,101293.16
2023-01-11T11:46:35.504Z,101280.97
2023-01-11T11:50:49.362Z,101286.72
2023-01-11T11:54:52.507Z,101294.09
2023-01-11T11:58:52.070Z,101295.69
2023-01-11T12:02:58.111Z,101297.88
2023-01-11T12:07:07.195Z,101304.81
2023-01-11T12:11:08.632Z,101313.19
2023-01-11T12:15:20.601Z,101300.28
2023-01-11T12:19:35.940Z,101301.38
2023-01-11T12:23:35.531Z,101294.16
2023-01-11T12:27:40.516Z,101294.41
2023-01-11T12:31:47.223Z,101293.47
2023-01-11T12:35:55.550Z,101293.56
2023-01-11T12:39:57.628Z,101283.78
2023-01-11T12:44:03.215Z,101289.09
2023-01-11T12:48:35.789Z,101296.34
2023-01-11T12:52:52.760Z,101309.44
2023-01-11T12:57:09.776Z,101314.22
2023-01-11T13:01:17.648Z,101316.63
2023-01-11T13:05:24.692Z,101299.78
2023-01-11T13:09:29.542Z,101304.81
2023-01-11T13:13:34.855Z,101299.50
2023-01-11T13:17:41.232Z,101305.47
2023-01-11T13:21:56.688Z,101308.03
2023-01-11T13:25:56.531Z,101304.56
2023-01-11T13:30:28.961Z,101323.34
2023-01-11T13:34:36.092Z,101333.44
2023-01-11T13:38:42.332Z,101322.88
2023-01-11T13:42:50.476Z,101333.53
2023-01-11T13:47:02.886Z,101349.16
2023-01-11T13:51:16.649Z,101346.88
2023-01-11T13:55:39.246Z,101364.13
2023-01-11T13:59:44.724Z,101365.03
2023-01-11T14:03:49.662Z,101369.66
2023-01-11T14:08:05.126Z,101386.94
2023-01-11T14:12:15.100Z,101389.09
2023-01-11T14:16:20.932Z,101386.75
2023-01-11T14:20:32.128Z,101394.16
2023-01-11T14:24:38.115Z,101381.63
2023-01-11T14:28:52.032Z,101382.72
2023-01-11T14:33:06.269Z,101387.53
2023-01-11T14:37:29.137Z,101381.97
2023-01-11T14:41:49.986Z,101396.94
2023-01-11T14:46:17.177Z,101402.44
2023-01-11T14:50:28.165Z,101420.19
2023-01-11T14:54:29.784Z,101411.75
2023-01-11T14:58:53.565Z,101430.22
2023-01-11T15:02:53.835Z,101428.88
2023-01-11T15:07:03.991Z,101449.59
2023-01-11T15:11:07.395Z,101453.97
2023-01-11T15:15:10.770Z,101450.41
2023-01-11T15:19:59.106Z,101461.06
2023-01-11T15:24:11.437Z,101450.31
2023-01-11T15:28:28.202Z,101461.00
2023-01-11T15:32:32.389Z,101474.78
2023-01-11T15:37:02.276Z,101472.56
2023-01-11T15:41:28.078Z,101482.81
2023-01-11T15:46:04.485Z,101480.97
2023-01-11T15:50:19.754Z,101479.34
2023-01-11T15:54:39.922Z,101491.53
2023-01-11T15:59:08.067Z,101494.09
2023-01-11T16:03:23.186Z,101484.97
2023-01-11T16:07:47.899Z,101463.56
2023-01-11T16:12:18.343Z,101474.34
2023-01-11T16:16:37.749Z,101477.34
2023-01-11T16:21:24.177Z,101502.13
2023-01-11T16:25:51.246Z,101505.03
2023-01-11T16:30:01.241Z,101501.06
2023-01-11T16:34:34.971Z,101515.66
2023-01-11T16:38:41.955Z,101536.28
2023-01-11T16:42:53.507Z,101540.22
2023-01-11T16:47:25.346Z,101542.53
2023-01-11T16:51:43.580Z,101543.25
2023-01-11T17:01:27.371Z,101563.13
2023-01-11T17:06:09.370Z,101561.25
2023-01-11T17:10:31.722Z,101563.06
2023-01-11T17:14:56.876Z,101571.69
2023-01-11T17:19:00.619Z,101571.75
2023-01-11T17:23:00.743Z,101575.69
2023-01-11T17:27:19.257Z,101576.13
2023-01-11T17:31:51.199Z,101580.25
2023-01-11T17:36:03.300Z,101576.59
2023-01-11T17:40:38.870Z,101579.63
2023-01-11T17:50:32.806Z,101593.06
2023-01-11T18:00:31.170Z,101607.28
2023-01-11T18:05:15.627Z,101607.09
2023-01-11T18:09:23.233Z,101599.44
2023-01-11T18:13:42.709Z,101594.56
2023-01-11T18:18:10.554Z,101623.19
2023-01-11T18:22:37.471Z,101604.59
2023-01-11T19:26:09.259Z,101645.09
2023-01-11T19:56:11.799Z,101679.25
2023-01-11T20:17:31.138Z,101662.34
2023-01-11T21:57:26.815Z,101727.97
2023-01-11T23:54:35.498Z,101689.06
